sensor_id;sensor_type;location;lat;lon;timestamp;pressure;altitude;pressure_sealevel;temperature
53412;BMP280;39307;52.870;13.660;2022-12-10T00:00:19;100443.03;;;-1.90
53412;BMP280;39307;52.870;13.660;2022-12-10T00:02:45;100438.94;;;-1.92
53412;BMP280;39307;52.870;13.660;2022-12-10T00:05:12;100442.16;;;-2.01
53412;BMP280;39307;52.870;13.660;2022-12-10T00:07:38;100436.81;;;-1.98
53412;BMP280;39307;52.870;13.660;2022-12-10T00:10:04;100441.84;;;-1.97
53412;BMP280;39307;52.870;13.660;2022-12-10T00:12:31;100436.44;;;-2.04
53412;BMP280;39307;52.870;13.660;2022-12-10T00:14:57;100439.94;;;-2.05
53412;BMP280;39307;52.870;13.660;2022-12-10T00:17:23;100433.88;;;-2.04
53412;BMP280;39307;52.870;13.660;2022-12-10T00:19:49;100436.22;;;-2.02
53412;BMP280;39307;52.870;13.660;2022-12-10T00:22:15;100435.28;;;-2.01
53412;BMP280;39307;52.870;13.660;2022-12-10T00:24:41;100430.50;;;-1.94
53412;BMP280;39307;52.870;13.660;2022-12-10T00:27:07;100428.06;;;-1.96
53412;BMP280;39307;52.870;13.660;2022-12-10T00:29:33;100433.31;;;-1.97
53412;BMP280;39307;52.870;13.660;2022-12-10T00:31:59;100437.53;;;-1.96
53412;BMP280;39307;52.870;13.660;2022-12-10T00:34:25;100436.59;;;-1.95
53412;BMP280;39307;52.870;13.660;2022-12-10T00:36:51;100437.53;;;-1.96
53412;BMP280;39307;52.870;13.660;2022-12-10T00:39:19;100440.91;;;-1.96
53412;BMP280;39307;52.870;13.660;2022-12-10T00:41:46;100438.72;;;-1.89
53412;BMP280;39307;52.870;13.660;2022-12-10T00:44:12;100445.47;;;-1.88
53412;BMP280;39307;52.870;13.660;2022-12-10T00:46:39;100438.38;;;-1.85
53412;BMP280;39307;52.870;13.660;2022-12-10T00:49:05;100432.09;;;-1.81
53412;BMP280;39307;52.870;13.660;2022-12-10T00:51:32;100436.28;;;-1.80
53412;BMP280;39307;52.870;13.660;2022-12-10T00:53:58;100437.53;;;-1.85
53412;BMP280;39307;52.870;13.660;2022-12-10T00:56:27;100436.94;;;-1.89
53412;BMP280;39307;52.870;13.660;2022-12-10T00:58:54;100442.00;;;-1.87
53412;BMP280;39307;52.870;13.660;2022-12-10T01:03:53;100443.28;;;-1.82
53412;BMP280;39307;52.870;13.660;2022-12-10T01:08:49;100453.50;;;-1.93
53412;BMP280;39307;52.870;13.660;2022-12-10T01:11:17;100451.75;;;-1.92
53412;BMP280;39307;52.870;13.660;2022-12-10T01:13:45;100457.47;;;-1.89
53412;BMP280;39307;52.870;13.660;2022-12-10T01:16:14;100449.91;;;-1.90
53412;BMP280;39307;52.870;13.660;2022-12-10T01:18:41;100460.16;;;-1.90
53412;BMP280;39307;52.870;13.660;2022-12-10T01:21:13;100459.22;;;-1.89
53412;BMP280;39307;52.870;13.660;2022-12-10T01:23:42;100464.25;;;-1.88
53412;BMP280;39307;52.870;13.660;2022-12-10T01:26:11;100466.72;;;-1.86
53412;BMP280;39307;52.870;13.660;2022-12-10T01:28:39;100459.72;;;-1.84
53412;BMP280;39307;52.870;13.660;2022-12-10T01:31:09;100459.28;;;-1.78
53412;BMP280;39307;52.870;13.660;2022-12-10T01:33:36;100462.31;;;-1.73
53412;BMP280;39307;52.870;13.660;2022-12-10T01:36:14;100471.66;;;-1.73
53412;BMP280;39307;52.870;13.660;2022-12-10T01:38:41;100467.59;;;-1.64
53412;BMP280;39307;52.870;13.660;2022-12-10T01:41:15;100458.84;;;-1.62
53412;BMP280;39307;52.870;13.660;2022-12-10T01:46:34;100455.94;;;-1.57
53412;BMP280;39307;52.870;13.660;2022-12-10T01:49:03;100453.38;;;-1.57
53412;BMP280;39307;52.870;13.660;2022-12-10T01:51:34;100463.97;;;-1.62
53412;BMP280;39307;52.870;13.660;2022-12-10T01:54:03;100459.78;;;-1.63
53412;BMP280;39307;52.870;13.660;2022-12-10T01:56:31;100449.16;;;-1.58
53412;BMP280;39307;52.870;13.660;2022-12-10T01:59:01;100463.97;;;-1.62
53412;BMP280;39307;52.870;13.660;2022-12-10T02:01:40;100458.16;;;-1.64
53412;BMP280;39307;52.870;13.660;2022-12-10T02:07:05;100458.16;;;-1.64
53412;BMP280;39307;52.870;13.660;2022-12-10T02:10:03;100451.59;;;-1.68
53412;BMP280;39307;52.870;13.660;2022-12-10T02:12:51;100448.72;;;-1.63
53412;BMP280;39307;52.870;13.660;2022-12-10T02:15:26;100450.91;;;-1.59
53412;BMP280;39307;52.870;13.660;2022-12-10T02:17:58;100451.41;;;-1.54
53412;BMP280;39307;52.870;13.660;2022-12-10T02:20:44;100441.59;;;-1.49
53412;BMP280;39307;52.870;13.660;2022-12-10T02:23:24;100439.16;;;-1.40
53412;BMP280;39307;52.870;13.660;2022-12-10T02:26:15;100446.28;;;-1.43
53412;BMP280;39307;52.870;13.660;2022-12-10T02:31:29;100447.34;;;-1.45
53412;BMP280;39307;52.870;13.660;2022-12-10T02:33:59;100450.72;;;-1.45
53412;BMP280;39307;52.870;13.660;2022-12-10T02:36:30;100440.78;;;-1.49
53412;BMP280;39307;52.870;13.660;2022-12-10T02:39:00;100444.16;;;-1.49
53412;BMP280;39307;52.870;13.660;2022-12-10T02:41:34;100445.56;;;-1.56
53412;BMP280;39307;52.870;13.660;2022-12-10T02:44:07;100438.00;;;-1.57
53412;BMP280;39307;52.870;13.660;2022-12-10T02:46:37;100448.94;;;-1.55
53412;BMP280;39307;52.870;13.660;2022-12-10T02:49:06;100451.63;;;-1.57
53412;BMP280;39307;52.870;13.660;2022-12-10T02:51:33;100449.06;;;-1.57
53412;BMP280;39307;52.870;13.660;2022-12-10T02:54:05;100445.56;;;-1.56
53412;BMP280;39307;52.870;13.660;2022-12-10T02:56:48;100445.69;;;-1.46
53412;BMP280;39307;52.870;13.660;2022-12-10T02:59:24;100443.03;;;-1.45
53412;BMP280;39307;52.870;13.660;2022-12-10T03:02:19;100448.38;;;-1.48
53412;BMP280;39307;52.870;13.660;2022-12-10T03:04:58;100451.03;;;-1.49
53412;BMP280;39307;52.870;13.660;2022-12-10T03:10:12;100442.75;;;-1.53
53412;BMP280;39307;52.870;13.660;2022-12-10T03:12:47;100438.69;;;-1.44
53412;BMP280;39307;52.870;13.660;2022-12-10T03:15:15;100442.78;;;-1.42
53412;BMP280;39307;52.870;13.660;2022-12-10T03:17:42;100442.47;;;-1.27
53412;BMP280;39307;52.870;13.660;2022-12-10T03:20:13;100438.91;;;-1.37
53412;BMP280;39307;52.870;13.660;2022-12-10T03:22:44;100444.28;;;-1.50
53412;BMP280;39307;52.870;13.660;2022-12-10T03:25:13;100449.97;;;-1.58
53412;BMP280;39307;52.870;13.660;2022-12-10T03:27:42;100450.69;;;-1.56
53412;BMP280;39307;52.870;13.660;2022-12-10T03:30:09;100450.59;;;-1.54
53412;BMP280;39307;52.870;13.660;2022-12-10T03:32:35;100450.69;;;-1.56
53412;BMP280;39307;52.870;13.660;2022-12-10T03:35:03;100457.13;;;-1.50
53412;BMP280;39307;52.870;13.660;2022-12-10T03:37:31;100449.28;;;-1.49
53412;BMP280;39307;52.870;13.660;2022-12-10T03:39:58;100445.09;;;-1.50
53412;BMP280;39307;52.870;13.660;2022-12-10T03:42:24;100444.41;;;-1.41
53412;BMP280;39307;52.870;13.660;2022-12-10T03:44:51;100447.91;;;-1.53
53412;BMP280;39307;52.870;13.660;2022-12-10T03:47:18;100455.59;;;-1.53
53412;BMP280;39307;52.870;13.660;2022-12-10T03:49:45;100453.03;;;-1.53
53412;BMP280;39307;52.870;13.660;2022-12-10T03:52:11;100458.44;;;-1.45
53412;BMP280;39307;52.870;13.660;2022-12-10T03:54:37;100460.63;;;-1.51
53412;BMP280;39307;52.870;13.660;2022-12-10T03:57:03;100458.63;;;-1.59
53412;BMP280;39307;52.870;13.660;2022-12-10T03:59:30;100456.06;;;-1.59
53412;BMP280;39307;52.870;13.660;2022-12-10T04:01:57;100455.47;;;-1.62
53412;BMP280;39307;52.870;13.660;2022-12-10T04:04:23;100455.69;;;-1.65
53412;BMP280;39307;52.870;13.660;2022-12-10T04:06:49;100453.03;;;-1.64
53412;BMP280;39307;52.870;13.660;2022-12-10T04:09:15;100450.34;;;-1.62
53412;BMP280;39307;52.870;13.660;2022-12-10T04:11:42;100452.31;;;-1.55
53412;BMP280;39307;52.870;13.660;2022-12-10T04:14:10;100455.09;;;-1.58
53412;BMP280;39307;52.870;13.660;2022-12-10T04:16:36;100446.81;;;-1.61
53412;BMP280;39307;52.870;13.660;2022-12-10T04:19:12;100446.00;;;-1.62
53412;BMP280;39307;52.870;13.660;2022-12-10T04:21:40;100445.56;;;-1.56
53412;BMP280;39307;52.870;13.660;2022-12-10T04:24:09;100452.44;;;-1.56
53412;BMP280;39307;52.870;13.660;2022-12-10T04:26:35;100445.56;;;-1.56
53412;BMP280;39307;52.870;13.660;2022-12-10T04:29:09;100436.81;;;-1.53
53412;BMP280;39307;52.870;13.660;2022-12-10T04:31:36;100449.06;;;-1.57
53412;BMP280;39307;52.870;13.660;2022-12-10T04:34:02;100437.38;;;-1.61
53412;BMP280;39307;52.870;13.660;2022-12-10T04:36:28;100439.03;;;-1.60
53412;BMP280;39307;52.870;13.660;2022-12-10T04:38:54;100435.50;;;-1.59
53412;BMP280;39307;52.870;13.660;2022-12-10T04:41:20;100442.28;;;-1.58
53412;BMP280;39307;52.870;13.660;2022-12-10T04:43:46;100444.16;;;-1.60
53412;BMP280;39307;52.870;13.660;2022-12-10T04:46:12;100447.75;;;-1.62
53412;BMP280;39307;52.870;13.660;2022-12-10T04:48:38;100454.06;;;-1.66
53412;BMP280;39307;52.870;13.660;2022-12-10T04:51:05;100455.69;;;-1.65
53412;BMP280;39307;52.870;13.660;2022-12-10T04:53:31;100456.28;;;-1.62
53412;BMP280;39307;52.870;13.660;2022-12-10T04:55:57;100445.56;;;-1.67
53412;BMP280;39307;52.870;13.660;2022-12-10T04:58:23;100449.16;;;-1.69
53412;BMP280;39307;52.870;13.660;2022-12-10T05:00:49;100454.16;;;-1.68
53412;BMP280;39307;52.870;13.660;2022-12-10T05:03:16;100448.00;;;-1.65
53412;BMP280;39307;52.870;13.660;2022-12-10T05:05:42;100444.94;;;-1.70
53412;BMP280;39307;52.870;13.660;2022-12-10T05:08:08;100450.91;;;-1.70
53412;BMP280;39307;52.870;13.660;2022-12-10T05:10:35;100451.13;;;-1.73
53412;BMP280;39307;52.870;13.660;2022-12-10T05:13:03;100453.91;;;-1.75
53412;BMP280;39307;52.870;13.660;2022-12-10T05:15:30;100456.72;;;-1.78
53412;BMP280;39307;52.870;13.660;2022-12-10T05:17:56;100456.94;;;-1.81
53412;BMP280;39307;52.870;13.660;2022-12-10T05:20:22;100461.25;;;-1.82
53412;BMP280;39307;52.870;13.660;2022-12-10T05:22:48;100461.72;;;-1.77
53412;BMP280;39307;52.870;13.660;2022-12-10T05:25:14;100459.50;;;-1.81
53412;BMP280;39307;52.870;13.660;2022-12-10T05:27:41;100459.72;;;-1.84
53412;BMP280;39307;52.870;13.660;2022-12-10T05:30:07;100459.94;;;-1.87
53412;BMP280;39307;52.870;13.660;2022-12-10T05:32:34;100459.00;;;-1.86
53412;BMP280;39307;52.870;13.660;2022-12-10T05:35:00;100465.75;;;-1.85
53412;BMP280;39307;52.870;13.660;2022-12-10T05:37:27;100462.16;;;-1.83
53412;BMP280;39307;52.870;13.660;2022-12-10T05:39:54;100468.22;;;-1.84
53412;BMP280;39307;52.870;13.660;2022-12-10T05:42:20;100467.66;;;-1.87
53412;BMP280;39307;52.870;13.660;2022-12-10T05:44:46;100472.06;;;-1.89
53412;BMP280;39307;52.870;13.660;2022-12-10T05:47:12;100467.75;;;-1.89
53412;BMP280;39307;52.870;13.660;2022-12-10T05:49:38;100468.78;;;-1.91
53412;BMP280;39307;52.870;13.660;2022-12-10T05:52:05;100460.84;;;-1.88
53412;BMP280;39307;52.870;13.660;2022-12-10T05:54:31;100458.50;;;-1.91
53412;BMP280;39307;52.870;13.660;2022-12-10T05:56:57;100465.53;;;-1.93
53412;BMP280;39307;52.870;13.660;2022-12-10T05:59:23;100464.59;;;-1.92
53412;BMP280;39307;52.870;13.660;2022-12-10T06:01:49;100466.34;;;-1.93
53412;BMP280;39307;52.870;13.660;2022-12-10T06:04:15;100462.00;;;-1.92
53412;BMP280;39307;52.870;13.660;2022-12-10T06:06:42;100467.97;;;-1.92
53412;BMP280;39307;52.870;13.660;2022-12-10T06:09:12;100464.72;;;-1.94
53412;BMP280;39307;52.870;13.660;2022-12-10T06:11:38;100468.31;;;-1.96
53412;BMP280;39307;52.870;13.660;2022-12-10T06:14:05;100480.69;;;-1.90
53412;BMP280;39307;52.870;13.660;2022-12-10T06:16:31;100471.75;;;-1.85
53412;BMP280;39307;52.870;13.660;2022-12-10T06:18:57;100483.72;;;-1.85
53412;BMP280;39307;52.870;13.660;2022-12-10T06:21:24;100478.72;;;-1.87
53412;BMP280;39307;52.870;13.660;2022-12-10T06:23:51;100479.53;;;-1.86
53412;BMP280;39307;52.870;13.660;2022-12-10T06:26:20;100483.03;;;-1.87
53412;BMP280;39307;52.870;13.660;2022-12-10T06:28:47;100485.59;;;-1.87
53412;BMP280;39307;52.870;13.660;2022-12-10T06:31:14;100485.38;;;-1.84
53412;BMP280;39307;52.870;13.660;2022-12-10T06:33:41;100483.63;;;-1.84
53412;BMP280;39307;52.870;13.660;2022-12-10T06:36:09;100493.91;;;-1.84
53412;BMP280;39307;52.870;13.660;2022-12-10T06:38:36;100495.66;;;-1.84
53412;BMP280;39307;52.870;13.660;2022-12-10T06:41:07;100495.75;;;-1.86
53412;BMP280;39307;52.870;13.660;2022-12-10T06:43:33;100491.41;;;-1.85
53412;BMP280;39307;52.870;13.660;2022-12-10T06:46:07;100498.59;;;-1.67
53412;BMP280;39307;52.870;13.660;2022-12-10T06:48:34;100495.56;;;-1.72
53412;BMP280;39307;52.870;13.660;2022-12-10T06:51:01;100495.56;;;-1.72
53412;BMP280;39307;52.870;13.660;2022-12-10T06:53:27;100507.47;;;-1.71
53412;BMP280;39307;52.870;13.660;2022-12-10T06:55:56;100508.41;;;-1.72
53412;BMP280;39307;52.870;13.660;2022-12-10T06:58:23;100499.03;;;-1.73
53412;BMP280;39307;52.870;13.660;2022-12-10T07:00:50;100502.56;;;-1.74
53412;BMP280;39307;52.870;13.660;2022-12-10T07:03:16;100501.75;;;-1.74
53412;BMP280;39307;52.870;13.660;2022-12-10T07:05:42;100507.59;;;-1.73
53412;BMP280;39307;52.870;13.660;2022-12-10T07:08:08;100503.13;;;-1.71
53412;BMP280;39307;52.870;13.660;2022-12-10T07:10:36;100503.28;;;-1.72
53412;BMP280;39307;52.870;13.660;2022-12-10T07:13:03;100507.16;;;-1.67
53412;BMP280;39307;52.870;13.660;2022-12-10T07:15:31;100503.13;;;-1.71
53412;BMP280;39307;52.870;13.660;2022-12-10T07:17:57;100507.16;;;-1.67
53412;BMP280;39307;52.870;13.660;2022-12-10T07:20:23;100504.09;;;-1.61
53412;BMP280;39307;52.870;13.660;2022-12-10T07:22:49;100502.84;;;-1.55
53412;BMP280;39307;52.870;13.660;2022-12-10T07:25:16;100501.00;;;-1.53
53412;BMP280;39307;52.870;13.660;2022-12-10T07:27:42;100503.66;;;-1.55
53412;BMP280;39307;52.870;13.660;2022-12-10T07:30:08;100510.44;;;-1.54
53412;BMP280;39307;52.870;13.660;2022-12-10T07:32:35;100506.44;;;-1.58
53412;BMP280;39307;52.870;13.660;2022-12-10T07:35:01;100515.00;;;-1.57
53412;BMP280;39307;52.870;13.660;2022-12-10T07:37:27;100508.31;;;-1.60
53412;BMP280;39307;52.870;13.660;2022-12-10T07:39:53;100513.91;;;-1.55
53412;BMP280;39307;52.870;13.660;2022-12-10T07:42:20;100513.69;;;-1.52
53412;BMP280;39307;52.870;13.660;2022-12-10T07:44:47;100513.91;;;-1.55
53412;BMP280;39307;52.870;13.660;2022-12-10T07:47:14;100522.56;;;-1.56
53412;BMP280;39307;52.870;13.660;2022-12-10T07:49:40;100522.47;;;-1.54
53412;BMP280;39307;52.870;13.660;2022-12-10T07:52:07;100518.16;;;-1.54
53412;BMP280;39307;52.870;13.660;2022-12-10T07:54:34;100525.03;;;-1.54
53412;BMP280;39307;52.870;13.660;2022-12-10T07:57:01;100527.47;;;-1.53
53412;BMP280;39307;52.870;13.660;2022-12-10T07:59:27;100535.06;;;-1.51
53412;BMP280;39307;52.870;13.660;2022-12-10T08:01:53;100541.72;;;-1.49
53412;BMP280;39307;52.870;13.660;2022-12-10T08:04:19;100541.84;;;-1.50
53412;BMP280;39307;52.870;13.660;2022-12-10T08:06:46;100542.78;;;-1.51
53412;BMP280;39307;52.870;13.660;2022-12-10T08:09:12;100544.63;;;-1.53
53412;BMP280;39307;52.870;13.660;2022-12-10T08:11:38;100550.56;;;-1.53
53412;BMP280;39307;52.870;13.660;2022-12-10T08:14:04;100549.41;;;-1.49
53412;BMP280;39307;52.870;13.660;2022-12-10T08:16:31;100549.19;;;-1.46
53412;BMP280;39307;52.870;13.660;2022-12-10T08:18:58;100546.53;;;-1.44
53412;BMP280;39307;52.870;13.660;2022-12-10T08:21:27;100554.31;;;-1.46
53412;BMP280;39307;52.870;13.660;2022-12-10T08:23:55;100555.84;;;-1.44
53412;BMP280;39307;52.870;13.660;2022-12-10T08:26:27;100559.00;;;-1.40
53412;BMP280;39307;52.870;13.660;2022-12-10T08:28:55;100559.81;;;-1.40
53412;BMP280;39307;52.870;13.660;2022-12-10T08:31:24;100559.16;;;-1.31
53412;BMP280;39307;52.870;13.660;2022-12-10T08:33:50;100562.00;;;-1.23
53412;BMP280;39307;52.870;13.660;2022-12-10T08:36:17;100565.59;;;-1.25
53412;BMP280;39307;52.870;13.660;2022-12-10T08:38:44;100565.50;;;-1.24
53412;BMP280;39307;52.870;13.660;2022-12-10T08:41:16;100567.63;;;-1.07
53412;BMP280;39307;52.870;13.660;2022-12-10T08:43:43;100562.06;;;-0.80
53412;BMP280;39307;52.870;13.660;2022-12-10T08:46:10;100565.78;;;-0.84
53412;BMP280;39307;52.870;13.660;2022-12-10T08:48:36;100556.09;;;-1.02
53412;BMP280;39307;52.870;13.660;2022-12-10T08:51:04;100562.63;;;-1.09
53412;BMP280;39307;52.870;13.660;2022-12-10T08:53:30;100575.47;;;-1.09
53412;BMP280;39307;52.870;13.660;2022-12-10T08:55:57;100575.22;;;-1.06
53412;BMP280;39307;52.870;13.660;2022-12-10T08:58:23;100578.38;;;-1.02
53412;BMP280;39307;52.870;13.660;2022-12-10T09:00:50;100570.91;;;-0.94
53412;BMP280;39307;52.870;13.660;2022-12-10T09:03:17;100578.63;;;-0.94
53412;BMP280;39307;52.870;13.660;2022-12-10T09:05:43;100582.25;;;-0.97
53412;BMP280;39307;52.870;13.660;2022-12-10T09:08:10;100578.75;;;-0.96
53412;BMP280;39307;52.870;13.660;2022-12-10T09:10:37;100585.28;;;-0.92
53412;BMP280;39307;52.870;13.660;2022-12-10T09:13:04;100589.16;;;-0.87
53412;BMP280;39307;52.870;13.660;2022-12-10T09:15:30;100575.25;;;-0.84
53412;BMP280;39307;52.870;13.660;2022-12-10T09:17:57;100587.16;;;-0.83
53412;BMP280;39307;52.870;13.660;2022-12-10T09:20:23;100587.06;;;-0.82
53412;BMP280;39307;52.870;13.660;2022-12-10T09:22:50;100587.53;;;-0.77
53412;BMP280;39307;52.870;13.660;2022-12-10T09:25:16;100584.03;;;-0.76
53412;BMP280;39307;52.870;13.660;2022-12-10T09:27:43;100582.16;;;-0.74
53412;BMP280;39307;52.870;13.660;2022-12-10T09:30:10;100582.28;;;-0.75
53412;BMP280;39307;52.870;13.660;2022-12-10T09:32:37;100579.00;;;-0.77
53412;BMP280;39307;52.870;13.660;2022-12-10T09:35:03;100584.94;;;-0.77
53412;BMP280;39307;52.870;13.660;2022-12-10T09:37:30;100579.72;;;-0.75
53412;BMP280;39307;52.870;13.660;2022-12-10T09:39:56;100570.69;;;-0.70
53412;BMP280;39307;52.870;13.660;2022-12-10T09:42:26;100571.19;;;-0.65
53412;BMP280;39307;52.870;13.660;2022-12-10T09:50:59;100574.00;;;-0.57
53412;BMP280;39307;52.870;13.660;2022-12-10T09:53:24;100573.28;;;-0.59
53412;BMP280;39307;52.870;13.660;2022-12-10T09:55:54;100568.63;;;-0.54
53412;BMP280;39307;52.870;13.660;2022-12-10T09:58:23;100567.69;;;-0.53
53412;BMP280;39307;52.870;13.660;2022-12-10T10:01:02;100572.81;;;-0.53
53412;BMP280;39307;52.870;13.660;2022-12-10T10:03:33;100571.28;;;-0.56
53412;BMP280;39307;52.870;13.660;2022-12-10T10:06:03;100570.25;;;-0.53
53412;BMP280;39307;52.870;13.660;2022-12-10T10:08:43;100568.03;;;-0.47
53412;BMP280;39307;52.870;13.660;2022-12-10T10:11:19;100566.75;;;-0.41
53412;BMP280;39307;52.870;13.660;2022-12-10T10:14:14;100564.28;;;-0.32
53412;BMP280;39307;52.870;13.660;2022-12-10T10:17:03;100568.13;;;-0.37
53412;BMP280;39307;52.870;13.660;2022-12-10T10:19:31;100566.50;;;-0.38
53412;BMP280;39307;52.870;13.660;2022-12-10T10:21:59;100562.88;;;-0.36
53412;BMP280;39307;52.870;13.660;2022-12-10T10:24:35;100563.56;;;-0.34
53412;BMP280;39307;52.870;13.660;2022-12-10T10:27:15;100574.56;;;-0.32
53412;BMP280;39307;52.870;13.660;2022-12-10T10:29:47;100574.56;;;-0.32
53412;BMP280;39307;52.870;13.660;2022-12-10T10:32:23;100574.19;;;-0.28
53412;BMP280;39307;52.870;13.660;2022-12-10T10:34:55;100581.22;;;-0.29
53412;BMP280;39307;52.870;13.660;2022-12-10T10:37:26;100574.09;;;-0.26
53412;BMP280;39307;52.870;13.660;2022-12-10T10:39:53;100567.09;;;-0.24
53412;BMP280;39307;52.870;13.660;2022-12-10T10:44:52;100560.75;;;-0.20
53412;BMP280;39307;52.870;13.660;2022-12-10T10:47:33;100560.63;;;-0.19
53412;BMP280;39307;52.870;13.660;2022-12-10T10:50:00;100562.38;;;-0.19
53412;BMP280;39307;52.870;13.660;2022-12-10T10:52:34;100556.31;;;-0.18
53412;BMP280;39307;52.870;13.660;2022-12-10T10:55:02;100550.47;;;-0.20
53412;BMP280;39307;52.870;13.660;2022-12-10T10:57:36;100556.31;;;-0.18
53412;BMP280;39307;52.870;13.660;2022-12-10T11:02:42;100552.75;;;-0.06
53412;BMP280;39307;52.870;13.660;2022-12-10T11:05:37;100537.47;;;-0.08
53412;BMP280;39307;52.870;13.660;2022-12-10T11:08:06;100538.63;;;-0.12
53412;BMP280;39307;52.870;13.660;2022-12-10T11:10:48;100539.69;;;-0.14
53412;BMP280;39307;52.870;13.660;2022-12-10T11:13:28;100544.59;;;-0.11
53412;BMP280;39307;52.870;13.660;2022-12-10T11:16:17;100539.31;;;-0.10
53412;BMP280;39307;52.870;13.660;2022-12-10T11:19:01;100534.19;;;-0.10
53412;BMP280;39307;52.870;13.660;2022-12-10T11:21:28;100547.75;;;-0.08
53412;BMP280;39307;52.870;13.660;2022-12-10T11:23:55;100537.56;;;-0.09
53412;BMP280;39307;52.870;13.660;2022-12-10T11:26:40;100535.69;;;0.03
53412;BMP280;39307;52.870;13.660;2022-12-10T11:37:42;100529.50;;;-0.05
53412;BMP280;39307;52.870;13.660;2022-12-10T11:40:45;100538.72;;;-0.02
53412;BMP280;39307;52.870;13.660;2022-12-10T11:43:37;100536.16;;;-0.02
53412;BMP280;39307;52.870;13.660;2022-12-10T11:54:26;100531.09;;;0.07
53412;BMP280;39307;52.870;13.660;2022-12-10T11:57:09;100517.66;;;0.03
53412;BMP280;39307;52.870;13.660;2022-12-10T12:09:25;100520.09;;;0.05
53412;BMP280;39307;52.870;13.660;2022-12-10T12:12:16;100520.09;;;0.05
53412;BMP280;39307;52.870;13.660;2022-12-10T12:17:43;100519.84;;;0.08
53412;BMP280;39307;52.870;13.660;2022-12-10T12:23:11;100537.53;;;0.01
53412;BMP280;39307;52.870;13.660;2022-12-10T12:25:46;100533.44;;;-0.01
53412;BMP280;39307;52.870;13.660;2022-12-10T12:28:26;100533.28;;;0.11
53412;BMP280;39307;52.870;13.660;2022-12-10T12:31:19;100523.78;;;0.23
53412;BMP280;39307;52.870;13.660;2022-12-10T12:36:34;100538.94;;;0.05
53412;BMP280;39307;52.870;13.660;2022-12-10T12:41:59;100539.75;;;0.06
53412;BMP280;39307;52.870;13.660;2022-12-10T12:50:26;100536.34;;;0.05
53412;BMP280;39307;52.870;13.660;2022-12-10T12:52:59;100538.94;;;0.05
53412;BMP280;39307;52.870;13.660;2022-12-10T12:55:50;100537.31;;;0.04
53412;BMP280;39307;52.870;13.660;2022-12-10T12:58:41;100531.19;;;0.05
53412;BMP280;39307;52.870;13.660;2022-12-10T13:01:30;100534.16;;;0.01
53412;BMP280;39307;52.870;13.660;2022-12-10T13:03:59;100544.44;;;0.01
53412;BMP280;39307;52.870;13.660;2022-12-10T13:06:28;100533.22;;;0.02
53412;BMP280;39307;52.870;13.660;2022-12-10T13:14:35;100543.25;;;0.05
53412;BMP280;39307;52.870;13.660;2022-12-10T13:19:41;100548.31;;;0.06
53412;BMP280;39307;52.870;13.660;2022-12-10T13:22:10;100553.44;;;0.06
53412;BMP280;39307;52.870;13.660;2022-12-10T13:32:20;100560.47;;;0.04
53412;BMP280;39307;52.870;13.660;2022-12-10T13:37:35;100559.50;;;0.05
53412;BMP280;39307;52.870;13.660;2022-12-10T13:43:23;100576.00;;;0.03
53412;BMP280;39307;52.870;13.660;2022-12-10T13:49:19;100572.63;;;0.02
53412;BMP280;39307;52.870;13.660;2022-12-10T13:51:59;100573.56;;;0.01
53412;BMP280;39307;52.870;13.660;2022-12-10T13:54:39;100576.28;;;0.00
53412;BMP280;39307;52.870;13.660;2022-12-10T13:57:50;100581.16;;;0.03
53412;BMP280;39307;52.870;13.660;2022-12-10T14:00:28;100576.97;;;0.02
53412;BMP280;39307;52.870;13.660;2022-12-10T14:06:02;100584.00;;;0.00
53412;BMP280;39307;52.870;13.660;2022-12-10T14:08:33;100580.59;;;-0.01
53412;BMP280;39307;52.870;13.660;2022-12-10T14:11:00;100571.25;;;-0.01
53412;BMP280;39307;52.870;13.660;2022-12-10T14:13:37;100585.28;;;-0.05
53412;BMP280;39307;52.870;13.660;2022-12-10T14:16:10;100573.25;;;-0.05
53412;BMP280;39307;52.870;13.660;2022-12-10T14:18:38;100583.53;;;-0.05
53412;BMP280;39307;52.870;13.660;2022-12-10T14:21:10;100589.50;;;-0.04
53412;BMP280;39307;52.870;13.660;2022-12-10T14:23:45;100586.81;;;-0.03
53412;BMP280;39307;52.870;13.660;2022-12-10T14:26:17;100584.09;;;-0.01
53412;BMP280;39307;52.870;13.660;2022-12-10T14:28:53;100579.78;;;-0.01
53412;BMP280;39307;52.870;13.660;2022-12-10T14:34:07;100574.63;;;-0.01
53412;BMP280;39307;52.870;13.660;2022-12-10T14:36:38;100584.09;;;-0.01
53412;BMP280;39307;52.870;13.660;2022-12-10T14:39:16;100584.34;;;-0.04
53412;BMP280;39307;52.870;13.660;2022-12-10T14:41:44;100584.59;;;-0.07
53412;BMP280;39307;52.870;13.660;2022-12-10T14:44:16;100581.31;;;-0.09
53412;BMP280;39307;52.870;13.660;2022-12-10T14:46:42;100579.44;;;-0.07
53412;BMP280;39307;52.870;13.660;2022-12-10T14:49:17;100577.34;;;-0.02
53412;BMP280;39307;52.870;13.660;2022-12-10T14:51:45;100580.81;;;-0.03
53412;BMP280;39307;52.870;13.660;2022-12-10T14:54:33;100590.19;;;-0.02
53412;BMP280;39307;52.870;13.660;2022-12-10T14:57:04;100585.72;;;-0.01
53412;BMP280;39307;52.870;13.660;2022-12-10T14:59:38;100588.53;;;-0.03
53412;BMP280;39307;52.870;13.660;2022-12-10T15:02:21;100599.53;;;-0.12
53412;BMP280;39307;52.870;13.660;2022-12-10T15:04:49;100603.44;;;-0.18
53412;BMP280;39307;52.870;13.660;2022-12-10T15:07:24;100601.69;;;-0.17
53412;BMP280;39307;52.870;13.660;2022-12-10T15:09:52;100597.22;;;-0.15
53412;BMP280;39307;52.870;13.660;2022-12-10T15:12:32;100601.69;;;-0.17
53412;BMP280;39307;52.870;13.660;2022-12-10T15:17:58;100601.69;;;-0.17
53412;BMP280;39307;52.870;13.660;2022-12-10T15:20:30;100607.78;;;-0.18
53412;BMP280;39307;52.870;13.660;2022-12-10T15:23:11;100606.34;;;-0.22
53412;BMP280;39307;52.870;13.660;2022-12-10T15:25:47;100606.59;;;-0.25
53412;BMP280;39307;52.870;13.660;2022-12-10T15:28:30;100600.38;;;-0.23
53412;BMP280;39307;52.870;13.660;2022-12-10T15:31:18;100604.72;;;-0.23
53412;BMP280;39307;52.870;13.660;2022-12-10T15:36:47;100611.63;;;-0.24
53412;BMP280;39307;52.870;13.660;2022-12-10T15:39:22;100608.34;;;-0.26
53412;BMP280;39307;52.870;13.660;2022-12-10T15:41:58;100608.25;;;-0.24
53412;BMP280;39307;52.870;13.660;2022-12-10T15:44:31;100608.47;;;-0.27
53412;BMP280;39307;52.870;13.660;2022-12-10T15:47:21;100611.72;;;-0.25
53412;BMP280;39307;52.870;13.660;2022-12-10T15:49:49;100614.44;;;-0.27
53412;BMP280;39307;52.870;13.660;2022-12-10T15:52:18;100621.22;;;-0.26